createdAt,value
2018-09-01T00:30:44.578Z,60.33
2018-09-01T00:33:38.002Z,73.80
2018-09-01T00:36:46.458Z,85.43
2018-09-01T00:39:53.696Z,84.13
2018-09-01T00:51:37.567Z,85.37
2018-09-01T00:54:31.157Z,81.17
2018-09-01T01:12:10.619Z,76.97
2018-09-01T01:14:56.752Z,76.77
2018-09-01T01:37:46.480Z,86.23
2018-09-01T01:40:17.651Z,98.40
2018-09-01T01:43:21.918Z,111.33
2018-09-01T01:46:25.437Z,87.83
2018-09-01T01:49:18.323Z,94.33
2018-09-01T01:51:52.241Z,100.80
2018-09-01T01:54:33.527Z,119.80
2018-09-01T01:57:07.698Z,117.97
2018-09-01T01:59:46.262Z,129.97
2018-09-01T02:06:11.125Z,144.33
2018-09-01T02:09:10.623Z,144.50
2018-09-01T02:11:45.293Z,131.47
2018-09-01T02:14:56.021Z,133.90
2018-09-01T02:18:01.742Z,144.10
2018-09-01T02:20:53.530Z,174.43
2018-09-01T02:23:32.540Z,174.80
2018-09-01T02:29:25.361Z,160.60
2018-09-01T02:31:56.370Z,176.87
2018-09-01T02:34:27.707Z,166.50
2018-09-01T02:46:57.641Z,184.67
2018-09-01T02:49:29.929Z,168.20
2018-09-01T02:52:13.049Z,169.70
2018-09-01T03:01:16.068Z,107.50
2018-09-01T03:03:47.346Z,114.60
2018-09-01T03:06:18.646Z,107.30
2018-09-01T03:08:50.616Z,116.77
2018-09-01T03:31:49.906Z,95.50
2018-09-01T03:34:23.891Z,84.93
2018-09-01T03:40:20.314Z,78.23
2018-09-01T03:42:53.686Z,80.97
2018-09-01T04:01:40.746Z,78.50
2018-09-01T04:04:54.636Z,60.67
2018-09-01T04:08:10.172Z,81.20
2018-09-01T04:11:19.835Z,86.67
2018-09-01T07:25:50.466Z,73.17
2018-09-01T07:39:21.700Z,44.43
2018-09-01T07:42:43.793Z,51.20
2018-09-01T07:49:56.150Z,48.47
2018-09-01T07:53:13.441Z,40.67
2018-09-01T07:56:37.471Z,38.47
2018-09-01T07:59:44.592Z,41.53
2018-09-01T08:02:43.012Z,39.93
2018-09-01T08:05:55.015Z,37.77
2018-09-01T08:12:50.367Z,40.63
2018-09-01T08:15:43.977Z,48.10
2018-09-01T08:34:40.391Z,62.20
2018-09-01T09:22:56.602Z,40.50
2018-09-01T09:25:26.480Z,35.60
2018-09-01T09:27:56.086Z,31.33
2018-09-01T09:30:25.635Z,30.80
2018-09-01T09:32:55.156Z,35.03
2018-09-01T09:35:25.727Z,44.70
2018-09-01T09:37:55.282Z,43.03
2018-09-01T09:40:25.785Z,35.33
2018-09-01T09:42:55.374Z,34.27
2018-09-01T09:45:24.830Z,35.93
2018-09-01T09:47:54.446Z,37.70
2018-09-01T09:50:23.960Z,50.87
2018-09-01T09:52:53.506Z,49.43
2018-09-01T09:55:23.072Z,50.47
2018-09-01T09:57:52.593Z,46.40
2018-09-01T10:00:28.357Z,47.40
2018-09-01T10:02:58.889Z,37.30
2018-09-01T10:05:29.527Z,45.33
2018-09-01T10:07:59.994Z,37.87
2018-09-01T10:10:29.527Z,26.50
2018-09-01T10:12:59.049Z,29.17
2018-09-01T10:15:28.585Z,27.07
2018-09-01T10:17:59.140Z,21.10
2018-09-01T10:20:28.653Z,25.23
2018-09-01T10:22:58.218Z,20.17
2018-09-01T10:25:28.906Z,24.10
2018-09-01T10:27:58.654Z,21.53
2018-09-01T10:30:28.309Z,26.97
2018-09-01T10:32:57.987Z,26.03
2018-09-01T10:35:27.938Z,30.93
2018-09-01T10:37:57.562Z,25.17
2018-09-01T10:40:28.138Z,22.83
2018-09-01T10:42:57.852Z,26.03
2018-09-01T10:45:27.411Z,32.30
2018-09-01T10:47:57.062Z,34.70
2018-09-01T10:50:26.592Z,36.33
2018-09-01T10:52:56.060Z,44.30
2018-09-01T10:55:25.613Z,39.83
2018-09-01T10:57:55.115Z,40.17
2018-09-01T11:00:24.594Z,39.63
2018-09-01T11:02:54.191Z,34.20
2018-09-01T11:05:24.947Z,31.27
2018-09-01T11:07:55.031Z,35.23
2018-09-01T11:10:24.566Z,32.63
2018-09-01T11:12:54.079Z,41.70
2018-09-01T11:15:24.568Z,39.03
2018-09-01T11:17:54.053Z,37.23
2018-09-01T11:20:23.702Z,36.77
2018-09-01T11:22:55.344Z,33.63
2018-09-01T11:25:25.004Z,36.43
2018-09-01T11:27:54.660Z,29.67
2018-09-01T11:30:25.117Z,34.90
2018-09-01T11:32:54.602Z,32.97
2018-09-01T11:35:24.186Z,33.43
2018-09-01T11:37:53.755Z,33.60
2018-09-01T11:40:23.274Z,35.67
2018-09-01T11:42:53.943Z,30.17
2018-09-01T11:45:23.655Z,32.17
2018-09-01T11:47:53.182Z,35.20
2018-09-01T11:50:22.836Z,36.43
2018-09-01T11:52:52.339Z,33.70
2018-09-01T11:55:21.883Z,35.73
2018-09-01T11:57:51.543Z,29.37
2018-09-01T12:00:21.090Z,31.33
2018-09-01T12:02:50.782Z,37.07
2018-09-01T12:05:21.302Z,39.73
2018-09-01T12:07:50.874Z,34.73
2018-09-01T12:10:22.315Z,32.57
2018-09-01T12:12:51.940Z,34.83
2018-09-01T12:15:21.432Z,36.90
2018-09-01T12:17:50.918Z,33.80
2018-09-01T12:20:22.391Z,38.07
2018-09-01T12:22:52.813Z,32.23
2018-09-01T12:25:22.327Z,37.97
2018-09-01T12:27:52.856Z,33.40
2018-09-01T12:30:23.380Z,32.20
2018-09-01T12:32:52.851Z,35.73
2018-09-01T12:35:22.441Z,31.63
2018-09-01T12:37:55.932Z,30.53
2018-09-01T12:40:25.435Z,27.77
2018-09-01T12:42:54.941Z,30.00
2018-09-01T12:45:24.562Z,31.30
2018-09-01T12:47:55.122Z,28.87
2018-09-01T12:50:25.690Z,34.87
2018-09-01T12:52:55.244Z,31.70
2018-09-01T12:55:24.785Z,37.83
2018-09-01T12:57:54.353Z,33.67
2018-09-01T13:00:23.917Z,33.20
2018-09-01T13:02:53.441Z,30.93
2018-09-01T13:05:23.955Z,32.77
2018-09-01T13:07:53.695Z,37.13
2018-09-01T13:10:23.215Z,35.93
2018-09-01T13:12:54.804Z,32.20
2018-09-01T13:15:24.352Z,32.77
2018-09-01T13:17:53.892Z,29.40
2018-09-01T13:20:23.503Z,29.90
2018-09-01T13:22:53.012Z,28.97
2018-09-01T13:25:22.717Z,35.03
2018-09-01T13:27:52.116Z,36.43
2018-09-01T13:30:21.842Z,35.80
2018-09-01T13:32:51.336Z,32.33
2018-09-01T13:35:20.976Z,33.67
2018-09-01T13:37:50.470Z,39.80
2018-09-01T13:40:20.145Z,35.87
2018-09-01T13:42:50.791Z,41.40
2018-09-01T13:45:20.356Z,35.47
2018-09-01T13:47:51.045Z,33.20
2018-09-01T13:50:20.686Z,33.57
2018-09-01T13:52:50.225Z,36.23
2018-09-01T13:55:20.767Z,37.10
2018-09-01T13:57:50.344Z,34.60
2018-09-01T14:00:19.942Z,30.00
2018-09-01T14:02:49.415Z,35.37
2018-09-01T14:05:19.009Z,29.50
2018-09-01T14:07:48.590Z,33.43
2018-09-01T14:10:20.192Z,33.23
2018-09-01T14:12:49.900Z,29.13
2018-09-01T14:15:19.506Z,30.10
2018-09-01T14:17:49.036Z,31.30
2018-09-01T14:20:18.821Z,32.03
2018-09-01T14:22:50.465Z,30.20
2018-09-01T14:25:20.163Z,26.00
2018-09-01T14:27:49.938Z,29.93
2018-09-01T14:30:19.578Z,38.37
2018-09-01T14:32:49.308Z,35.73
2018-09-01T14:35:18.818Z,31.87
2018-09-01T14:37:48.367Z,35.20
2018-09-01T14:40:18.925Z,36.53
2018-09-01T14:42:48.517Z,33.23
2018-09-01T14:45:19.202Z,30.83
2018-09-01T14:47:48.801Z,32.27
2018-09-01T14:50:18.302Z,34.60
2018-09-01T14:52:47.816Z,32.30
2018-09-01T14:55:17.381Z,28.53
2018-09-01T14:57:48.758Z,30.00
2018-09-01T15:00:18.238Z,29.03
2018-09-01T15:02:47.740Z,32.27
2018-09-01T15:05:17.273Z,26.13
2018-09-01T15:07:46.750Z,29.37
2018-09-01T15:10:16.311Z,31.17
2018-09-01T15:12:45.872Z,28.80
2018-09-01T15:15:16.418Z,28.73
2018-09-01T15:17:45.994Z,27.60
2018-09-01T15:20:15.744Z,30.83
2018-09-01T15:22:46.260Z,29.13
2018-09-01T15:25:16.845Z,25.43
2018-09-01T15:27:46.473Z,31.57
2018-09-01T15:30:17.065Z,26.37
2018-09-01T15:32:46.766Z,36.00
2018-09-01T15:35:16.346Z,25.43
2018-09-01T15:37:46.141Z,25.03
2018-09-01T15:40:15.651Z,29.33
2018-09-01T15:42:45.302Z,25.60
2018-09-01T15:45:15.859Z,24.70
2018-09-01T15:47:45.452Z,28.10
2018-09-01T15:50:14.972Z,31.63
2018-09-01T15:52:44.469Z,28.63
2018-09-01T15:55:14.046Z,34.03
2018-09-01T15:57:44.576Z,27.97
2018-09-01T16:00:14.145Z,23.73
2018-09-01T16:02:43.789Z,29.90
2018-09-01T16:05:13.407Z,22.00
2018-09-01T16:07:43.883Z,25.17
2018-09-01T16:10:14.233Z,31.47
2018-09-01T16:12:43.838Z,34.87
2018-09-01T16:15:13.394Z,28.37
2018-09-01T16:17:45.045Z,25.23
2018-09-01T16:20:16.965Z,27.87
2018-09-01T16:22:46.754Z,25.73
2018-09-01T16:25:17.085Z,30.47
2018-09-01T16:27:48.381Z,25.77
2018-09-01T16:30:19.004Z,27.73
2018-09-01T16:32:49.625Z,29.10
2018-09-01T16:35:19.257Z,32.80
2018-09-01T16:37:48.844Z,31.93
2018-09-01T16:40:21.993Z,32.97
2018-09-01T16:42:51.612Z,27.87
2018-09-01T16:45:21.201Z,29.17
2018-09-01T16:47:51.745Z,34.50
2018-09-01T16:50:21.343Z,30.90
2018-09-01T16:52:50.856Z,33.20
2018-09-01T16:55:20.358Z,35.70
2018-09-01T16:57:49.832Z,30.90
2018-09-01T17:00:19.356Z,42.23
2018-09-01T17:02:48.919Z,36.40
2018-09-01T17:05:19.483Z,29.17
2018-09-01T17:07:50.051Z,25.27
2018-09-01T17:10:19.681Z,28.53
2018-09-01T17:12:49.843Z,32.97
2018-09-01T17:15:19.650Z,32.17
2018-09-01T17:17:49.281Z,27.33
2018-09-01T17:20:18.808Z,28.53
2018-09-01T17:22:48.378Z,26.90
2018-09-01T17:25:17.857Z,30.93
2018-09-01T17:27:47.413Z,26.07
2018-09-01T17:30:17.089Z,31.10
2018-09-01T17:32:46.968Z,32.67
2018-09-01T17:35:17.401Z,34.60
2018-09-01T17:37:47.001Z,27.17
2018-09-01T17:40:16.620Z,37.90
2018-09-01T17:42:46.145Z,34.50
2018-09-01T17:45:16.720Z,27.00
2018-09-01T17:47:46.202Z,24.53
2018-09-01T17:50:17.829Z,23.97
2018-09-01T17:52:47.353Z,22.63
2018-09-01T17:55:18.000Z,31.10
2018-09-01T17:57:47.992Z,37.37
2018-09-01T18:00:17.522Z,33.40
2018-09-01T18:02:48.033Z,26.83
2018-09-01T18:05:21.501Z,28.03
2018-09-01T18:07:50.999Z,32.27
2018-09-01T18:10:21.625Z,30.77
2018-09-01T18:12:52.170Z,33.10
2018-09-01T18:15:24.068Z,33.93
2018-09-01T18:17:57.570Z,36.73
2018-09-01T18:20:27.100Z,36.03
2018-09-01T18:22:58.100Z,36.83
2018-09-01T18:25:27.543Z,30.10
2018-09-01T18:27:57.279Z,33.07
2018-09-01T18:30:26.881Z,32.33
2018-09-01T18:32:57.480Z,31.33
2018-09-01T18:35:31.935Z,29.53
2018-09-01T18:38:01.446Z,34.03
2018-09-01T18:40:31.168Z,31.83
2018-09-01T18:43:01.703Z,31.33
2018-09-01T18:45:31.604Z,32.00
2018-09-01T18:48:01.130Z,36.27
2018-09-01T18:50:30.595Z,38.57
2018-09-01T18:53:01.199Z,34.70
2018-09-01T18:55:30.837Z,30.53
2018-09-01T18:58:00.494Z,30.67
2018-09-01T19:00:31.018Z,34.33
2018-09-01T19:03:02.567Z,31.60
2018-09-01T19:05:33.080Z,28.07
2018-09-01T19:08:02.647Z,44.80
2018-09-01T19:10:32.279Z,35.77
2018-09-01T19:13:01.877Z,31.03
2018-09-01T19:15:31.613Z,35.33
2018-09-01T19:18:01.116Z,27.20
2018-09-01T19:20:30.685Z,29.13
2018-09-01T19:23:00.276Z,29.23
2018-09-01T19:25:30.925Z,28.13
2018-09-01T19:28:02.425Z,30.03
2018-09-01T19:30:31.983Z,32.30
2018-09-01T19:33:01.691Z,25.77
2018-09-01T19:35:31.239Z,27.50
2018-09-01T19:38:01.797Z,26.60
2018-09-01T19:40:31.632Z,24.73
2018-09-01T19:43:02.245Z,30.50
2018-09-01T19:45:34.413Z,24.37
2018-09-01T19:48:03.890Z,23.30
2018-09-01T19:50:33.508Z,25.73
2018-09-01T19:53:03.306Z,23.20
2018-09-01T19:55:32.981Z,24.93
2018-09-01T19:58:02.650Z,17.57
2018-09-01T20:00:33.412Z,20.33
2018-09-01T20:03:03.204Z,25.77
2018-09-01T20:05:32.845Z,25.17
2018-09-01T20:08:02.565Z,20.40
2018-09-01T20:10:32.325Z,22.77
2018-09-01T20:13:01.930Z,24.07
2018-09-01T20:15:31.479Z,20.37
2018-09-01T20:18:02.079Z,25.93
2018-09-01T20:20:31.569Z,23.37
2018-09-01T20:23:02.220Z,19.13
2018-09-01T20:25:31.841Z,18.97
2018-09-01T20:28:01.445Z,23.17
2018-09-01T20:30:33.293Z,22.80
2018-09-01T20:33:02.839Z,21.13
2018-09-01T20:35:37.509Z,21.50
2018-09-01T20:38:07.248Z,22.70
2018-09-01T20:40:36.764Z,21.97
2018-09-01T20:43:06.408Z,15.77
2018-09-01T20:45:36.031Z,22.77
2018-09-01T20:48:05.577Z,20.53
2018-09-01T20:50:35.143Z,24.00
2018-09-01T20:53:04.679Z,23.57
2018-09-01T20:55:34.243Z,17.83
2018-09-01T20:58:03.800Z,21.53
2018-09-01T21:00:33.367Z,20.87
2018-09-01T21:03:03.028Z,21.37
2018-09-01T21:05:32.574Z,19.17
2018-09-01T21:08:02.199Z,22.23
2018-09-01T21:10:31.705Z,21.47
2018-09-01T21:13:01.225Z,24.23
2018-09-01T21:15:30.812Z,18.83
2018-09-01T21:18:00.288Z,25.00
2018-09-01T21:20:29.820Z,24.33
2018-09-01T21:22:59.506Z,21.63
2018-09-01T21:25:29.086Z,28.40
2018-09-01T21:27:58.688Z,22.20
2018-09-01T21:30:28.918Z,21.13
2018-09-01T21:32:58.431Z,25.73
2018-09-01T21:35:28.120Z,19.33
2018-09-01T21:37:57.900Z,19.13
2018-09-01T21:40:28.412Z,20.57
2018-09-01T21:42:58.156Z,18.80
2018-09-01T21:45:27.946Z,21.00
2018-09-01T21:47:58.505Z,19.83
2018-09-01T21:50:28.121Z,18.00
2018-09-01T21:52:57.799Z,19.60
2018-09-01T21:55:27.409Z,25.93
2018-09-01T21:57:57.975Z,22.67
2018-09-01T22:00:27.533Z,19.17
2018-09-01T22:02:57.060Z,17.20
2018-09-01T22:05:26.629Z,20.57
2018-09-01T22:07:56.177Z,18.80
2018-09-01T22:10:26.007Z,22.20
2018-09-01T22:12:57.527Z,17.07
2018-09-01T22:15:27.348Z,17.23
2018-09-01T22:17:58.000Z,16.67
2018-09-01T22:20:29.616Z,19.47
2018-09-01T22:23:00.051Z,18.73
2018-09-01T22:25:29.672Z,16.33
2018-09-01T22:27:59.348Z,17.57
2018-09-01T22:30:28.901Z,15.83
2018-09-01T22:32:58.548Z,19.77
2018-09-01T22:35:28.061Z,18.87
2018-09-01T22:37:58.668Z,18.63
2018-09-01T22:40:28.269Z,15.07
2018-09-01T22:42:57.937Z,17.37
2018-09-01T22:45:27.740Z,13.03
2018-09-01T22:47:58.045Z,14.80
2018-09-01T22:50:28.336Z,15.73
2018-09-01T22:52:57.957Z,15.00
2018-09-01T22:55:27.535Z,19.37
2018-09-01T22:57:57.965Z,17.57
2018-09-01T23:00:27.665Z,14.67
2018-09-01T23:02:57.241Z,15.37
2018-09-01T23:05:28.804Z,18.53
2018-09-01T23:07:58.485Z,18.60
2018-09-01T23:10:28.213Z,15.50
2018-09-01T23:12:58.001Z,14.87
2018-09-01T23:15:27.917Z,19.33
2018-09-01T23:17:58.334Z,19.30
2018-09-01T23:20:27.841Z,17.37
2018-09-01T23:22:57.542Z,15.37
2018-09-01T23:25:27.189Z,19.60
2018-09-01T23:27:57.704Z,16.97
2018-09-01T23:30:27.343Z,23.00
2018-09-01T23:32:56.873Z,22.53
2018-09-01T23:35:27.393Z,20.00
2018-09-01T23:37:57.947Z,20.43
2018-09-01T23:40:27.538Z,18.97
2018-09-01T23:42:59.138Z,17.77
2018-09-01T23:45:28.733Z,18.50
2018-09-01T23:47:58.323Z,15.27
2018-09-01T23:50:27.882Z,15.77
2018-09-01T23:52:58.058Z,22.43
2018-09-01T23:55:27.870Z,15.83
2018-09-01T23:57:57.451Z,19.30
